createdAt,value
2023-05-05T00:00:04.022Z,60.44
2023-05-05T00:02:31.197Z,60.56
2023-05-05T00:04:57.921Z,60.67
2023-05-05T00:07:24.532Z,60.51
2023-05-05T00:09:52.483Z,61.06
2023-05-05T00:12:19.221Z,60.46
2023-05-05T00:14:45.850Z,60.64
2023-05-05T00:17:12.547Z,60.85
2023-05-05T00:19:40.885Z,60.68
2023-05-05T00:22:07.571Z,60.82
2023-05-05T00:24:34.220Z,61.00
2023-05-05T00:27:02.251Z,61.11
2023-05-05T00:29:29.035Z,61.28
2023-05-05T00:31:55.845Z,60.92
2023-05-05T00:34:22.571Z,61.10
2023-05-05T00:36:49.224Z,61.21
2023-05-05T00:39:16.218Z,61.23
2023-05-05T00:41:42.816Z,60.89
2023-05-05T00:44:10.783Z,61.28
2023-05-05T00:46:37.503Z,61.17
2023-05-05T00:49:04.495Z,61.31
2023-05-05T00:51:31.509Z,61.26
2023-05-05T00:53:58.394Z,61.63
2023-05-05T00:56:25.267Z,61.39
2023-05-05T00:58:51.857Z,61.54
2023-05-05T01:01:19.949Z,61.62
2023-05-05T01:03:47.207Z,61.59
2023-05-05T01:06:31.188Z,61.35
2023-05-05T01:09:01.844Z,61.53
2023-05-05T01:11:35.532Z,61.45
2023-05-05T01:14:11.975Z,61.62
2023-05-05T01:16:49.331Z,61.71
2023-05-05T01:19:31.060Z,61.89
2023-05-05T01:22:02.084Z,61.84
2023-05-05T01:24:55.584Z,61.86
2023-05-05T01:27:34.187Z,62.31
2023-05-05T01:30:16.943Z,62.36
2023-05-05T01:32:50.667Z,62.48
2023-05-05T01:35:20.842Z,62.56
2023-05-05T01:37:51.540Z,62.61
2023-05-05T01:40:22.459Z,62.65
2023-05-05T01:42:50.761Z,62.76
2023-05-05T01:45:20.536Z,63.19
2023-05-05T01:47:49.322Z,63.18
2023-05-05T01:50:16.691Z,63.36
2023-05-05T01:52:46.359Z,63.12
2023-05-05T01:55:16.280Z,63.37
2023-05-05T01:57:45.066Z,63.34
2023-05-05T02:00:13.228Z,63.75
2023-05-05T02:02:41.787Z,63.77
2023-05-05T02:05:11.053Z,63.75
2023-05-05T02:07:38.701Z,63.53
2023-05-05T02:10:08.125Z,63.72
2023-05-05T02:12:37.233Z,63.71
2023-05-05T02:15:04.806Z,64.12
2023-05-05T02:17:32.105Z,63.83
2023-05-05T02:20:00.581Z,64.34
2023-05-05T02:22:28.741Z,64.22
2023-05-05T02:24:55.600Z,64.28
2023-05-05T02:27:24.241Z,64.37
2023-05-05T02:29:53.964Z,64.58
2023-05-05T02:32:34.128Z,64.52
2023-05-05T02:35:09.129Z,64.68
2023-05-05T02:37:39.243Z,64.83
2023-05-05T02:40:08.947Z,64.86
2023-05-05T02:42:39.852Z,64.69
2023-05-05T02:45:10.927Z,64.85
2023-05-05T02:47:38.618Z,64.67
2023-05-05T02:50:07.133Z,64.58
2023-05-05T02:52:34.898Z,64.46
2023-05-05T02:55:04.609Z,64.67
2023-05-05T02:57:37.540Z,64.66
2023-05-05T03:00:10.495Z,64.74
2023-05-05T03:02:44.683Z,64.87
2023-05-05T03:05:16.907Z,64.95
2023-05-05T03:07:53.699Z,65.43
2023-05-05T03:10:28.619Z,65.59
2023-05-05T03:12:58.163Z,65.79
2023-05-05T03:15:28.304Z,65.86
2023-05-05T03:17:56.529Z,65.60
2023-05-05T03:20:24.133Z,65.81
2023-05-05T03:22:51.661Z,66.00
2023-05-05T03:25:18.339Z,66.14
2023-05-05T03:27:46.300Z,66.29
2023-05-05T03:30:13.421Z,66.51
2023-05-05T03:32:40.251Z,66.47
2023-05-05T03:35:07.552Z,66.63
2023-05-05T03:37:34.159Z,66.55
2023-05-05T03:40:00.844Z,66.28
2023-05-05T03:42:27.440Z,67.02
2023-05-05T03:44:55.514Z,67.12
2023-05-05T03:47:22.147Z,67.12
2023-05-05T03:49:48.755Z,67.14
2023-05-05T03:52:15.613Z,67.20
2023-05-05T03:54:42.185Z,66.89
2023-05-05T03:57:08.848Z,67.24
2023-05-05T03:59:35.509Z,67.56
2023-05-05T04:02:03.501Z,67.38
2023-05-05T04:04:30.341Z,67.81
2023-05-05T04:06:57.013Z,67.61
2023-05-05T04:09:23.692Z,67.13
2023-05-05T04:11:50.329Z,66.66
2023-05-05T04:14:17.043Z,66.31
2023-05-05T04:16:43.720Z,66.42
2023-05-05T04:19:11.943Z,66.34
2023-05-05T04:21:38.605Z,66.54
2023-05-05T04:24:05.956Z,66.58
2023-05-05T04:26:32.622Z,66.77
2023-05-05T04:28:59.309Z,64.93
2023-05-05T04:31:25.998Z,62.19
2023-05-05T04:33:52.753Z,59.88
2023-05-05T04:36:20.756Z,57.14
2023-05-05T04:38:47.459Z,55.36
2023-05-05T04:41:14.262Z,54.60
2023-05-05T04:43:40.958Z,54.84
2023-05-05T04:46:07.732Z,55.65
2023-05-05T04:48:34.513Z,55.14
2023-05-05T04:51:04.286Z,54.64
2023-05-05T04:53:32.278Z,55.49
2023-05-05T04:55:59.692Z,55.17
2023-05-05T04:58:26.344Z,55.16
2023-05-05T05:00:52.959Z,55.40
2023-05-05T05:03:19.836Z,55.20
2023-05-05T05:05:46.584Z,55.16
2023-05-05T05:08:15.386Z,55.59
2023-05-05T05:10:43.540Z,55.31
2023-05-05T05:13:12.417Z,55.80
2023-05-05T05:15:42.005Z,54.92
2023-05-05T05:18:08.633Z,55.52
2023-05-05T05:20:35.269Z,54.51
2023-05-05T05:23:02.201Z,55.20
2023-05-05T05:25:28.817Z,55.65
2023-05-05T05:28:08.733Z,55.76
2023-05-05T05:30:36.681Z,54.50
2023-05-05T05:33:03.911Z,54.54
2023-05-05T05:35:30.583Z,54.49
2023-05-05T05:37:57.235Z,54.19
2023-05-05T05:40:23.914Z,54.24
2023-05-05T05:42:50.593Z,54.33
2023-05-05T05:45:18.635Z,54.08
2023-05-05T05:47:45.273Z,53.85
2023-05-05T05:50:12.078Z,53.51
2023-05-05T05:52:38.757Z,53.61
2023-05-05T05:55:06.962Z,53.23
2023-05-05T05:57:33.596Z,53.40
2023-05-05T06:00:01.938Z,52.89
2023-05-05T06:02:30.231Z,53.05
2023-05-05T06:04:56.879Z,53.84
2023-05-05T06:07:23.437Z,53.85
2023-05-05T06:09:50.100Z,53.33
2023-05-05T06:12:16.676Z,53.48
2023-05-05T06:14:43.521Z,52.82
2023-05-05T06:17:10.119Z,52.46
2023-05-05T06:19:38.177Z,52.43
2023-05-05T06:22:04.907Z,51.91
2023-05-05T06:24:31.561Z,51.14
2023-05-05T06:26:58.268Z,51.36
2023-05-05T06:29:24.978Z,51.16
2023-05-05T06:31:51.714Z,51.16
2023-05-05T06:34:18.462Z,51.22
2023-05-05T06:36:46.516Z,51.24
2023-05-05T06:39:15.288Z,51.83
2023-05-05T06:41:42.534Z,49.97
2023-05-05T06:44:09.144Z,50.33
2023-05-05T06:46:35.838Z,49.87
2023-05-05T06:49:02.597Z,48.64
2023-05-05T06:51:29.667Z,49.02
2023-05-05T06:53:57.603Z,48.55
2023-05-05T06:56:24.317Z,48.07
2023-05-05T06:58:50.942Z,48.70
2023-05-05T07:01:17.577Z,47.99
2023-05-05T07:03:44.739Z,48.26
2023-05-05T07:06:11.438Z,48.01
2023-05-05T07:08:38.063Z,47.38
2023-05-05T07:11:06.133Z,48.22
2023-05-05T07:13:32.748Z,47.52
2023-05-05T07:15:59.757Z,46.20
2023-05-05T07:18:26.397Z,47.37
2023-05-05T07:20:53.011Z,47.66
2023-05-05T07:23:19.840Z,46.89
2023-05-05T07:25:46.758Z,46.99
2023-05-05T07:28:14.991Z,46.46
2023-05-05T07:30:41.939Z,46.05
2023-05-05T07:33:08.978Z,47.47
2023-05-05T07:35:35.996Z,45.01
2023-05-05T07:38:02.909Z,45.96
2023-05-05T07:40:29.690Z,46.75
2023-05-05T07:42:56.719Z,46.44
2023-05-05T07:45:24.952Z,46.07
2023-05-05T07:47:51.971Z,45.46
2023-05-05T07:50:18.895Z,45.07
2023-05-05T07:52:49.977Z,45.82
2023-05-05T07:55:21.221Z,45.62
2023-05-05T07:57:48.473Z,44.92
2023-05-05T08:00:16.284Z,45.00
2023-05-05T08:02:44.578Z,45.81
2023-05-05T08:05:11.920Z,45.89
2023-05-05T08:07:39.027Z,45.76
2023-05-05T08:10:07.272Z,45.32
2023-05-05T08:12:34.076Z,46.11
2023-05-05T08:15:00.831Z,45.42
2023-05-05T08:17:27.856Z,45.45
2023-05-05T08:19:56.210Z,45.84
2023-05-05T08:22:23.028Z,45.40
2023-05-05T08:24:49.820Z,44.78
2023-05-05T08:27:16.661Z,46.89
2023-05-05T08:29:43.572Z,45.84
2023-05-05T08:32:10.470Z,44.79
2023-05-05T08:34:37.281Z,44.62
2023-05-05T08:37:05.745Z,44.78
2023-05-05T08:39:32.706Z,44.52
2023-05-05T08:41:59.767Z,44.40
2023-05-05T08:44:26.732Z,44.61
2023-05-05T08:46:54.701Z,43.98
2023-05-05T08:49:22.583Z,44.18
2023-05-05T08:51:52.336Z,44.43
2023-05-05T08:54:27.374Z,44.05
2023-05-05T08:56:57.385Z,43.78
2023-05-05T08:59:24.667Z,43.46
2023-05-05T09:01:52.946Z,43.53
2023-05-05T09:04:20.225Z,41.99
2023-05-05T09:06:47.261Z,42.61
2023-05-05T09:09:14.814Z,43.29
2023-05-05T09:11:45.043Z,43.00
2023-05-05T09:14:12.314Z,42.54
2023-05-05T09:16:41.458Z,43.09
2023-05-05T09:19:08.344Z,42.60
2023-05-05T09:21:35.378Z,43.96
2023-05-05T09:24:08.719Z,42.96
2023-05-05T09:26:37.296Z,44.04
2023-05-05T09:29:06.408Z,42.66
2023-05-05T09:31:34.899Z,41.81
2023-05-05T09:34:13.299Z,42.22
2023-05-05T09:36:44.988Z,41.11
2023-05-05T09:39:11.962Z,40.40
2023-05-05T09:41:39.868Z,40.54
2023-05-05T09:44:09.621Z,40.79
2023-05-05T09:46:36.747Z,40.42
2023-05-05T09:49:15.457Z,41.49
2023-05-05T09:51:42.457Z,41.22
2023-05-05T09:54:09.472Z,40.32
2023-05-05T09:56:38.295Z,39.22
2023-05-05T09:59:10.852Z,40.27
2023-05-05T10:01:38.482Z,40.09
2023-05-05T10:04:06.003Z,40.22
2023-05-05T10:06:44.769Z,38.65
2023-05-05T10:09:11.893Z,38.82
2023-05-05T10:11:41.308Z,39.49
2023-05-05T10:14:13.786Z,39.65
2023-05-05T10:16:46.616Z,38.35
2023-05-05T10:19:15.505Z,39.09
2023-05-05T10:21:47.514Z,38.74
2023-05-05T10:24:18.357Z,39.11
2023-05-05T10:26:46.662Z,37.15
2023-05-05T10:29:23.229Z,37.72
2023-05-05T10:31:53.141Z,38.71
2023-05-05T10:34:26.863Z,37.83
2023-05-05T10:36:54.098Z,38.59
2023-05-05T10:39:22.738Z,38.25
2023-05-05T10:41:51.415Z,37.71
2023-05-05T10:44:19.921Z,38.63
2023-05-05T10:46:47.399Z,37.83
2023-05-05T10:49:35.577Z,37.71
2023-05-05T10:52:10.140Z,36.01
2023-05-05T10:54:43.464Z,37.48
2023-05-05T10:57:10.782Z,35.86
2023-05-05T10:59:42.587Z,36.30
2023-05-05T11:02:20.341Z,37.31
2023-05-05T11:05:09.016Z,36.17
2023-05-05T11:07:36.676Z,37.46
2023-05-05T11:10:05.176Z,37.62
2023-05-05T11:12:33.585Z,36.37
2023-05-05T11:15:37.301Z,35.98
2023-05-05T11:18:07.940Z,36.03
2023-05-05T11:21:04.369Z,35.33
2023-05-05T11:23:31.530Z,35.31
2023-05-05T11:25:58.623Z,36.90
2023-05-05T11:28:27.137Z,35.63
2023-05-05T11:31:18.938Z,35.84
2023-05-05T11:33:47.900Z,35.10
2023-05-05T11:36:16.075Z,36.07
2023-05-05T11:39:07.718Z,34.56
2023-05-05T11:41:58.300Z,36.16
2023-05-05T11:44:30.891Z,36.62
2023-05-05T11:47:29.801Z,36.50
2023-05-05T11:49:58.727Z,35.25
2023-05-05T11:52:26.795Z,36.16
2023-05-05T11:54:54.000Z,36.15
2023-05-05T11:57:27.854Z,35.44
2023-05-05T11:59:56.463Z,36.59
2023-05-05T12:02:26.469Z,36.17
2023-05-05T12:04:53.788Z,34.61
2023-05-05T12:07:23.512Z,36.17
2023-05-05T12:09:50.732Z,34.83
2023-05-05T12:12:18.072Z,35.11
2023-05-05T12:14:46.727Z,35.60
2023-05-05T12:17:13.623Z,34.64
2023-05-05T12:19:45.666Z,34.89
2023-05-05T12:22:19.149Z,34.45
2023-05-05T12:24:54.877Z,35.83
2023-05-05T12:27:22.338Z,35.40
2023-05-05T12:29:49.722Z,35.46
2023-05-05T12:32:21.734Z,34.56
2023-05-05T12:34:50.436Z,33.78
2023-05-05T12:37:18.227Z,33.68
2023-05-05T12:39:45.316Z,34.48
2023-05-05T12:42:13.837Z,34.66
2023-05-05T12:44:40.989Z,34.58
2023-05-05T12:47:07.993Z,34.26
2023-05-05T12:49:45.962Z,33.90
2023-05-05T12:52:13.198Z,34.08
2023-05-05T12:54:54.735Z,36.19
2023-05-05T12:57:23.620Z,34.01
2023-05-05T12:59:51.056Z,34.66
2023-05-05T13:02:18.493Z,33.91
2023-05-05T13:04:50.430Z,34.79
2023-05-05T13:07:18.736Z,34.51
2023-05-05T13:09:46.171Z,34.66
2023-05-05T13:12:13.448Z,34.02
2023-05-05T13:14:41.931Z,34.67
2023-05-05T13:17:09.070Z,34.65
2023-05-05T13:19:35.988Z,33.98
2023-05-05T13:22:03.175Z,33.81
2023-05-05T13:24:46.379Z,34.23
2023-05-05T13:27:17.094Z,34.27
2023-05-05T13:29:45.727Z,33.98
2023-05-05T13:32:12.655Z,35.30
2023-05-05T13:34:39.683Z,34.78
2023-05-05T13:37:06.717Z,34.90
2023-05-05T13:39:33.857Z,34.63
2023-05-05T13:42:01.284Z,35.28
2023-05-05T13:44:28.157Z,35.27
2023-05-05T13:46:56.595Z,35.34
2023-05-05T13:49:23.458Z,37.16
2023-05-05T13:51:50.422Z,35.20
2023-05-05T13:54:17.390Z,35.62
2023-05-05T13:56:44.218Z,36.54
2023-05-05T13:59:11.194Z,35.78
2023-05-05T14:01:38.381Z,34.89
2023-05-05T14:04:06.982Z,34.91
2023-05-05T14:06:34.007Z,35.20
2023-05-05T14:09:01.219Z,35.84
2023-05-05T14:11:28.227Z,35.66
2023-05-05T14:13:55.137Z,35.47
2023-05-05T14:16:22.073Z,34.63
2023-05-05T14:18:48.879Z,36.37
2023-05-05T14:21:17.156Z,35.53
2023-05-05T14:23:44.179Z,35.93
2023-05-05T14:26:11.088Z,35.55
2023-05-05T14:28:38.036Z,35.06
2023-05-05T14:31:05.382Z,36.69
2023-05-05T14:33:32.295Z,37.06
2023-05-05T14:35:59.101Z,36.91
2023-05-05T14:38:27.465Z,35.84
2023-05-05T14:40:54.664Z,36.84
2023-05-05T14:43:21.713Z,36.96
2023-05-05T14:45:48.605Z,35.98
2023-05-05T14:48:15.469Z,36.56
2023-05-05T14:50:42.461Z,36.22
2023-05-05T14:53:09.338Z,35.87
2023-05-05T14:55:38.244Z,35.71
2023-05-05T14:58:05.455Z,35.51
2023-05-05T15:00:32.271Z,36.46
2023-05-05T15:02:59.285Z,35.73
2023-05-05T15:05:26.525Z,36.20
2023-05-05T15:07:53.401Z,35.99
2023-05-05T15:10:21.943Z,36.19
2023-05-05T15:12:50.323Z,36.54
2023-05-05T15:15:17.507Z,36.57
2023-05-05T15:17:44.312Z,36.01
2023-05-05T15:20:12.060Z,36.43
2023-05-05T15:22:39.161Z,36.42
2023-05-05T15:25:07.370Z,36.50
2023-05-05T15:27:34.458Z,36.59
2023-05-05T15:30:02.891Z,36.71
2023-05-05T15:32:29.758Z,36.99
2023-05-05T15:34:57.048Z,36.88
2023-05-05T15:37:23.980Z,37.78
2023-05-05T15:39:50.745Z,37.82
2023-05-05T15:42:17.625Z,38.35
2023-05-05T15:44:44.539Z,38.74
2023-05-05T15:47:12.949Z,38.20
2023-05-05T15:49:39.941Z,38.47
2023-05-05T15:52:06.815Z,37.78
2023-05-05T15:54:33.860Z,38.10
2023-05-05T15:57:01.014Z,37.69
2023-05-05T15:59:27.781Z,38.82
2023-05-05T16:01:54.645Z,38.51
2023-05-05T16:04:23.299Z,39.00
2023-05-05T16:06:50.046Z,38.94
2023-05-05T16:09:16.952Z,39.65
2023-05-05T16:11:43.947Z,39.78
2023-05-05T16:14:10.957Z,39.68
2023-05-05T16:16:37.782Z,39.55
2023-05-05T16:19:04.811Z,40.04
2023-05-05T16:21:33.146Z,40.49
2023-05-05T16:27:21.606Z,40.85
2023-05-05T16:33:10.397Z,40.53
2023-05-05T16:35:37.346Z,40.47
2023-05-05T16:38:05.929Z,41.13
2023-05-05T16:40:32.678Z,41.63
2023-05-05T16:42:59.504Z,41.38
2023-05-05T16:45:26.656Z,41.49
2023-05-05T16:47:53.696Z,41.49
2023-05-05T16:50:20.665Z,42.11
2023-05-05T16:52:47.728Z,42.07
2023-05-05T16:55:16.172Z,42.06
2023-05-05T16:57:43.023Z,42.28
2023-05-05T17:00:10.735Z,42.43
2023-05-05T17:02:37.757Z,42.90
2023-05-05T17:05:05.560Z,42.79
2023-05-05T17:07:32.633Z,43.29
2023-05-05T17:09:59.533Z,43.06
2023-05-05T17:12:27.981Z,43.43
2023-05-05T17:14:54.869Z,43.24
2023-05-05T17:17:21.914Z,43.69
2023-05-05T17:19:48.965Z,43.69
2023-05-05T17:22:16.072Z,43.91
2023-05-05T17:24:42.836Z,44.05
2023-05-05T17:27:09.645Z,44.46
2023-05-05T17:29:37.983Z,44.34
2023-05-05T17:32:05.526Z,44.25
2023-05-05T17:34:32.389Z,44.31
2023-05-05T17:36:59.384Z,44.49
2023-05-05T17:39:26.298Z,44.64
2023-05-05T17:41:53.454Z,44.40
2023-05-05T17:44:20.504Z,44.69
2023-05-05T17:46:49.000Z,44.93
2023-05-05T17:49:15.812Z,45.11
2023-05-05T17:51:42.725Z,45.29
2023-05-05T17:54:09.598Z,45.33
2023-05-05T17:56:36.373Z,45.74
2023-05-05T17:59:03.206Z,45.83
2023-05-05T18:01:30.113Z,45.75
2023-05-05T18:03:58.435Z,45.90
2023-05-05T18:06:25.398Z,46.13
2023-05-05T18:08:52.165Z,46.32
2023-05-05T18:11:19.075Z,46.57
2023-05-05T18:13:46.058Z,47.00
2023-05-05T18:16:12.923Z,47.35
2023-05-05T18:18:40.230Z,47.25
2023-05-05T18:21:08.606Z,47.20
2023-05-05T18:23:35.652Z,47.53
2023-05-05T18:26:02.408Z,47.75
2023-05-05T18:28:29.221Z,47.72
2023-05-05T18:30:56.189Z,48.10
2023-05-05T18:33:23.131Z,48.43
2023-05-05T18:35:50.417Z,49.30
2023-05-05T18:38:18.861Z,50.08
2023-05-05T18:40:45.661Z,50.66
2023-05-05T18:43:12.462Z,52.04
2023-05-05T18:45:39.429Z,52.47
2023-05-05T18:48:06.672Z,52.47
2023-05-05T18:50:33.876Z,52.79
2023-05-05T18:53:00.768Z,52.62
2023-05-05T18:55:30.266Z,52.99
2023-05-05T18:57:57.356Z,52.51
2023-05-05T19:00:24.248Z,52.85
2023-05-05T19:02:51.312Z,52.58
2023-05-05T19:05:18.449Z,52.61
2023-05-05T19:07:45.351Z,52.40
2023-05-05T19:10:12.160Z,52.75
2023-05-05T19:12:40.697Z,52.53
2023-05-05T19:15:08.704Z,52.14
2023-05-05T19:17:35.641Z,52.19
2023-05-05T19:20:02.596Z,52.17
2023-05-05T19:22:29.776Z,51.97
2023-05-05T19:24:56.642Z,52.24
2023-05-05T19:27:23.568Z,52.21
2023-05-05T19:29:51.930Z,51.99
2023-05-05T19:32:19.601Z,51.66
2023-05-05T19:34:46.759Z,51.94
2023-05-05T19:37:13.647Z,51.65
2023-05-05T19:39:40.602Z,52.11
2023-05-05T19:42:07.484Z,52.06
2023-05-05T19:44:34.269Z,52.06
2023-05-05T19:47:02.586Z,51.86
2023-05-05T19:49:29.573Z,52.03
2023-05-05T19:51:56.772Z,52.42
2023-05-05T19:54:23.657Z,52.23
2023-05-05T19:56:50.400Z,51.77
2023-05-05T19:59:17.338Z,52.32
2023-05-05T20:01:43.984Z,52.11
2023-05-05T20:04:12.138Z,52.01
2023-05-05T20:06:38.817Z,52.66
2023-05-05T20:09:05.806Z,52.25
2023-05-05T20:11:32.637Z,52.45
2023-05-05T20:13:59.519Z,52.39
2023-05-05T20:16:26.464Z,52.59
2023-05-05T20:18:53.365Z,52.85
2023-05-05T20:21:21.480Z,52.90
2023-05-05T20:23:48.277Z,52.94
2023-05-05T20:26:15.042Z,52.85
2023-05-05T20:28:45.081Z,53.65
2023-05-05T20:31:13.681Z,53.69
2023-05-05T20:33:40.444Z,53.53
2023-05-05T20:36:07.323Z,53.42
2023-05-05T20:38:35.277Z,53.67
2023-05-05T20:41:02.055Z,54.13
2023-05-05T20:43:29.029Z,53.82
2023-05-05T20:45:55.815Z,53.72
2023-05-05T20:48:22.483Z,53.75
2023-05-05T20:50:49.201Z,53.60
2023-05-05T20:53:16.329Z,53.47
2023-05-05T20:55:44.583Z,53.92
2023-05-05T20:58:11.286Z,53.89
2023-05-05T21:00:38.200Z,54.07
2023-05-05T21:03:05.141Z,53.66
2023-05-05T21:05:32.032Z,53.47
2023-05-05T21:08:00.873Z,53.26
2023-05-05T21:10:28.223Z,53.76
2023-05-05T21:12:56.282Z,53.09
2023-05-05T21:15:23.311Z,53.49
2023-05-05T21:17:50.012Z,53.37
2023-05-05T21:20:17.073Z,53.22
2023-05-05T21:22:43.906Z,53.29
2023-05-05T21:25:12.531Z,53.90
2023-05-05T21:27:39.235Z,53.85
2023-05-05T21:30:10.662Z,54.15
2023-05-05T21:32:37.884Z,55.14
2023-05-05T21:35:05.442Z,54.64
2023-05-05T21:37:32.086Z,55.62
2023-05-05T21:39:58.736Z,54.66
2023-05-05T21:42:25.705Z,55.13
2023-05-05T21:44:52.370Z,55.61
2023-05-05T21:47:20.405Z,55.46
2023-05-05T21:49:47.056Z,55.38
2023-05-05T21:52:13.780Z,56.79
2023-05-05T21:54:40.347Z,57.38
2023-05-05T21:57:07.074Z,57.64
2023-05-05T21:59:34.374Z,59.24
2023-05-05T22:02:01.060Z,58.43
2023-05-05T22:04:29.080Z,59.38
2023-05-05T22:06:55.687Z,60.22
2023-05-05T22:09:22.425Z,61.38
2023-05-05T22:11:51.062Z,61.70
2023-05-05T22:14:17.757Z,61.47
2023-05-05T22:16:44.473Z,62.12
2023-05-05T22:19:11.184Z,61.98
2023-05-05T22:21:39.216Z,62.93
2023-05-05T22:24:06.754Z,63.31
2023-05-05T22:26:33.456Z,63.08
2023-05-05T22:29:00.133Z,64.21
2023-05-05T22:31:26.872Z,64.33
2023-05-05T22:33:53.479Z,64.21
2023-05-05T22:36:20.128Z,64.74
2023-05-05T22:38:48.143Z,65.47
2023-05-05T22:41:14.830Z,65.25
2023-05-05T22:43:41.689Z,67.06
2023-05-05T22:46:08.346Z,66.12
2023-05-05T22:48:34.954Z,66.34
2023-05-05T22:51:01.670Z,66.87
2023-05-05T22:53:28.324Z,67.07
2023-05-05T22:55:56.340Z,68.10
2023-05-05T22:58:23.594Z,67.75
2023-05-05T23:00:50.245Z,68.32
2023-05-05T23:03:16.876Z,68.87
2023-05-05T23:05:43.680Z,69.18
2023-05-05T23:08:10.316Z,68.60
2023-05-05T23:10:37.125Z,68.86
2023-05-05T23:13:05.178Z,68.81
2023-05-05T23:15:31.914Z,69.04
2023-05-05T23:17:58.519Z,70.14
2023-05-05T23:20:25.438Z,70.67
2023-05-05T23:22:52.127Z,71.05
2023-05-05T23:25:18.872Z,71.32
2023-05-05T23:27:45.569Z,71.16
2023-05-05T23:30:14.384Z,71.52
2023-05-05T23:32:41.252Z,72.70
2023-05-05T23:35:09.163Z,72.25
2023-05-05T23:37:36.042Z,72.50
2023-05-05T23:40:02.934Z,72.91
2023-05-05T23:42:29.787Z,72.84
2023-05-05T23:44:56.417Z,72.73
2023-05-05T23:47:24.447Z,73.81
2023-05-05T23:49:51.077Z,72.66
2023-05-05T23:52:17.744Z,73.12
2023-05-05T23:54:44.977Z,73.88
2023-05-05T23:57:11.559Z,73.12
2023-05-05T23:59:39.022Z,73.25
